Time;durP1;ratioP1;P1;durP2;ratioP2;P2;SDS_P1;SDS_P2;PMS_P1;PMS_P2;Temp;Humidity;BMP_temperature;BMP_pressure;BME280_temperature;BME280_humidity;BME280_pressure;Samples;Min_cycle;Max_cycle;Signal;HPM_P1;HPM_P2
2021/05/13 00:00:11;;;;;;;2.75;1.38;;;18.70;61.30;;;;;;10546140;28;20568;-58
2021/05/13 00:05:12;;;;;;;4.13;1.95;;;18.80;61.30;;;;;;10546249;28;20031;-58
2021/05/13 00:10:19;;;;;;;2.33;1.55;;;18.70;61.20;;;;;;10562178;28;20085;-59
2021/05/13 00:15:25;;;;;;;2.08;1.40;;;18.70;61.20;;;;;;10567493;28;20042;-58
2021/05/13 00:20:30;;;;;;;2.85;1.45;;;18.70;61.20;;;;;;10545527;28;20043;-58
2021/05/13 00:25:31;;;;;;;4.00;1.65;;;18.70;61.10;;;;;;10532192;28;20039;-58
2021/05/13 00:30:31;;;;;;;3.00;1.70;;;18.70;61.10;;;;;;10572544;28;20155;-58
2021/05/13 00:35:32;;;;;;;2.53;1.30;;;18.70;61.10;;;;;;10566269;28;20036;-59
2021/05/13 00:40:34;;;;;;;3.40;1.55;;;18.70;61.00;;;;;;10544364;28;20505;-58
2021/05/13 00:45:35;;;;;;;3.58;1.23;;;18.70;61.00;;;;;;10526903;28;20123;-58
2021/05/13 00:50:35;;;;;;;6.30;1.75;;;18.70;60.90;;;;;;10544569;28;20527;-59
2021/05/13 00:55:38;;;;;;;2.45;1.52;;;18.70;60.90;;;;;;10530062;28;20394;-58
2021/05/13 01:01:25;;;;;;;3.63;1.40;;;18.70;60.80;;;;;;10533637;28;20477;-58
2021/05/13 01:06:00;;;;;;;3.63;1.67;;;18.60;60.70;;;;;;10557434;28;20205;-58
2021/05/13 01:11:01;;;;;;;5.65;1.70;;;18.60;60.60;;;;;;10543272;28;20055;-58
2021/05/13 01:16:22;;;;;;;2.58;1.52;;;18.60;60.60;;;;;;10568994;28;20153;-57
2021/05/13 01:21:23;;;;;;;4.22;2.00;;;18.60;60.60;;;;;;10542888;28;20044;-57
2021/05/13 01:26:24;;;;;;;3.13;1.20;;;18.60;60.50;;;;;;10537394;28;20036;-57
2021/05/13 01:31:24;;;;;;;2.88;1.33;;;18.60;60.40;;;;;;10546270;28;20026;-55
2021/05/13 01:36:25;;;;;;;3.97;1.38;;;18.60;60.30;;;;;;10543951;28;20036;-58
2021/05/13 01:41:26;;;;;;;2.80;1.30;;;18.50;60.20;;;;;;10554163;28;20036;-59
2021/05/13 01:46:27;;;;;;;3.03;1.40;;;18.50;60.70;;;;;;10543425;28;20047;-58
2021/05/13 01:51:27;;;;;;;5.28;1.75;;;18.50;60.10;;;;;;10565598;28;20024;-58
2021/05/13 01:56:28;;;;;;;3.45;1.42;;;18.50;60.10;;;;;;10558142;28;20103;-58
2021/05/13 02:01:29;;;;;;;4.70;1.80;;;18.50;60.10;;;;;;10562988;28;20099;-59
2021/05/13 02:06:30;;;;;;;2.50;1.55;;;18.50;60.00;;;;;;10541362;28;20488;-58
2021/05/13 02:11:31;;;;;;;3.45;1.38;;;18.50;59.90;;;;;;10558900;28;20032;-58
2021/05/13 02:16:32;;;;;;;3.08;1.38;;;18.50;59.90;;;;;;10540672;28;20028;-58
2021/05/13 02:21:32;;;;;;;3.17;1.55;;;18.50;59.80;;;;;;10540837;28;20031;-59
2021/05/13 02:26:33;;;;;;;1.90;1.10;;;18.40;59.70;;;;;;10561730;28;20043;-58
2021/05/13 02:31:34;;;;;;;2.38;1.42;;;18.40;59.70;;;;;;10544222;28;20103;-59
2021/05/13 02:36:36;;;;;;;3.38;1.67;;;18.40;59.70;;;;;;10552188;28;20050;-58
2021/05/13 02:41:38;;;;;;;2.00;1.27;;;18.40;59.60;;;;;;10563587;28;20059;-58
2021/05/13 02:46:39;;;;;;;2.90;1.30;;;18.40;59.60;;;;;;10528950;28;20096;-57
2021/05/13 02:51:39;;;;;;;1.67;1.33;;;18.40;59.50;;;;;;10522143;28;20088;-58
2021/05/13 02:56:41;;;;;;;1.00;0.80;;;18.40;59.50;;;;;;10559956;28;20031;-59
2021/05/13 03:01:42;;;;;;;2.47;1.30;;;18.40;59.40;;;;;;10544706;28;20024;-58
2021/05/13 03:06:44;;;;;;;3.83;1.77;;;18.40;59.30;;;;;;10550230;28;20128;-58
2021/05/13 03:11:45;;;;;;;5.97;1.63;;;18.40;59.30;;;;;;10567387;28;20117;-58
2021/05/13 03:16:46;;;;;;;1.98;1.48;;;18.30;59.20;;;;;;10539152;28;20489;-59
2021/05/13 03:21:47;;;;;;;3.72;1.13;;;18.30;59.20;;;;;;10532834;28;20027;-58
2021/05/13 03:31:49;;;;;;;2.38;1.48;;;18.30;59.20;;;;;;10574983;28;20039;-55
2021/05/13 03:36:49;;;;;;;2.25;1.25;;;18.30;59.20;;;;;;10532599;28;20114;-54
2021/05/13 03:41:51;;;;;;;2.08;1.20;;;18.30;59.10;;;;;;10555724;28;20157;-55
2021/05/13 03:46:51;;;;;;;1.45;0.93;;;18.30;59.10;;;;;;10565856;28;20038;-55
2021/05/13 03:51:52;;;;;;;2.03;1.20;;;18.30;59.00;;;;;;10573301;28;20046;-55
2021/05/13 03:56:53;;;;;;;1.88;1.27;;;18.20;59.00;;;;;;10547742;28;20134;-56
2021/05/13 04:02:23;;;;;;;2.75;1.30;;;18.30;59.00;;;;;;10562204;28;20031;-55
2021/05/13 04:07:34;;;;;;;3.10;1.55;;;18.30;58.90;;;;;;10559266;28;20380;-55
2021/05/13 04:12:40;;;;;;;5.28;1.48;;;18.20;58.80;;;;;;10568275;28;20022;-56
2021/05/13 04:17:40;;;;;;;2.72;1.60;;;18.20;58.80;;;;;;10551265;28;20061;-55
2021/05/13 04:22:41;;;;;;;1.48;1.02;;;18.20;58.70;;;;;;10568520;28;20138;-55
2021/05/13 04:27:42;;;;;;;2.67;1.60;;;18.20;58.80;;;;;;10564264;28;20338;-55
2021/05/13 04:32:42;;;;;;;2.58;1.40;;;18.20;58.80;;;;;;10552489;28;20472;-55
2021/05/13 04:37:43;;;;;;;2.90;1.33;;;18.20;59.50;;;;;;10565441;28;20411;-54
2021/05/13 04:42:44;;;;;;;2.80;1.52;;;18.20;58.90;;;;;;10564821;28;20032;-55
2021/05/13 04:52:45;;;;;;;2.45;1.25;;;18.10;58.70;;;;;;10562615;28;20028;-55
2021/05/13 04:57:46;;;;;;;3.47;1.40;;;18.10;58.80;;;;;;10536782;28;20544;-55
2021/05/13 05:02:46;;;;;;;2.60;1.83;;;18.20;58.80;;;;;;10566282;28;20035;-53
2021/05/13 05:07:47;;;;;;;2.80;1.70;;;18.10;58.80;;;;;;10560051;28;20028;-53
2021/05/13 05:12:48;;;;;;;1.38;1.00;;;18.10;58.90;;;;;;10556295;28;20024;-54
2021/05/13 05:17:49;;;;;;;3.40;1.40;;;18.10;58.90;;;;;;10525278;28;20093;-55
2021/05/13 05:22:49;;;;;;;3.33;1.08;;;18.10;58.90;;;;;;10543138;28;20028;-57
2021/05/13 05:27:51;;;;;;;2.65;1.55;;;18.10;59.90;;;;;;10566330;28;20031;-58
2021/05/13 05:32:51;;;;;;;8.02;1.77;;;18.10;60.80;;;;;;10577147;28;20020;-57
2021/05/13 05:37:54;;;;;;;6.57;1.50;;;18.10;60.90;;;;;;10565632;28;20455;-56
2021/05/13 05:42:55;;;;;;;10.73;2.05;;;18.20;60.90;;;;;;10570662;28;20453;-53
2021/05/13 05:47:59;;;;;;;10.05;2.13;;;18.20;61.30;;;;;;10578131;28;20127;-50
2021/05/13 05:53:01;;;;;;;9.80;2.10;;;18.20;62.00;;;;;;10546494;28;20067;-50
2021/05/13 05:58:03;;;;;;;9.02;1.92;;;18.20;61.60;;;;;;10542071;28;20492;-52
2021/05/13 06:03:04;;;;;;;8.98;1.88;;;18.20;61.90;;;;;;10565155;28;20074;-53
2021/05/13 06:08:05;;;;;;;7.13;1.95;;;18.20;61.50;;;;;;10581340;28;20048;-53
2021/05/13 06:13:07;;;;;;;12.73;1.95;;;18.20;61.30;;;;;;10561642;28;20027;-57
2021/05/13 06:18:08;;;;;;;10.80;2.72;;;18.10;61.30;;;;;;10574346;28;20487;-57
2021/05/13 06:23:09;;;;;;;13.20;2.72;;;18.10;61.10;;;;;;10540579;28;20040;-55
2021/05/13 06:28:10;;;;;;;14.73;4.07;;;18.10;60.90;;;;;;10527354;28;20422;-57
2021/05/13 06:33:11;;;;;;;6.30;2.08;;;18.10;61.40;;;;;;10560504;28;20098;-55
2021/05/13 06:38:11;;;;;;;7.65;2.55;;;18.10;61.10;;;;;;10572684;28;20387;-54
2021/05/13 06:43:12;;;;;;;11.18;2.40;;;18.10;61.20;;;;;;10550671;28;20115;-55
2021/05/13 06:48:13;;;;;;;11.45;3.78;;;18.10;61.20;;;;;;10540065;28;20138;-55
2021/05/13 06:53:13;;;;;;;9.27;3.00;;;18.10;61.40;;;;;;10539655;28;20110;-57
2021/05/13 06:58:14;;;;;;;7.97;2.85;;;18.10;61.40;;;;;;10572946;28;20131;-57
2021/05/13 07:03:16;;;;;;;7.47;2.60;;;18.10;61.40;;;;;;10558862;28;20112;-57
2021/05/13 07:08:16;;;;;;;12.50;3.50;;;18.10;61.50;;;;;;10538959;28;20030;-65
2021/05/13 07:13:17;;;;;;;9.50;3.95;;;18.10;62.30;;;;;;10564598;28;20127;-56
2021/05/13 07:18:18;;;;;;;10.45;3.45;;;18.10;61.70;;;;;;10538245;28;20448;-57
2021/05/13 07:23:19;;;;;;;7.85;3.03;;;18.10;61.70;;;;;;10550092;28;20086;-58
2021/05/13 07:28:19;;;;;;;12.15;4.40;;;18.10;61.90;;;;;;10548978;28;20036;-58
2021/05/13 07:33:20;;;;;;;8.70;4.18;;;18.10;61.80;;;;;;10546727;28;20455;-58
2021/05/13 07:38:21;;;;;;;11.40;4.40;;;18.10;61.80;;;;;;10545076;28;20119;-58
2021/05/13 07:43:22;;;;;;;9.43;3.75;;;18.10;61.80;;;;;;10538848;28;20032;-58
2021/05/13 07:48:22;;;;;;;6.90;3.10;;;18.10;61.70;;;;;;10539182;28;20035;-59
2021/05/13 07:53:26;;;;;;;8.02;4.13;;;18.10;61.80;;;;;;10552167;28;20466;-58
2021/05/13 07:58:26;;;;;;;6.82;3.53;;;18.20;62.00;;;;;;10539119;28;20032;-58
2021/05/13 08:03:27;;;;;;;6.68;4.05;;;18.20;61.90;;;;;;10537259;28;20101;-58
2021/05/13 08:08:28;;;;;;;6.38;3.92;;;18.20;61.80;;;;;;10540853;28;20524;-58
2021/05/13 08:13:30;;;;;;;8.60;3.20;;;18.20;61.80;;;;;;10542623;28;20028;-58
2021/05/13 08:18:31;;;;;;;6.82;3.70;;;18.20;61.80;;;;;;10545140;28;20111;-58
2021/05/13 08:23:32;;;;;;;10.48;4.72;;;18.20;61.90;;;;;;10544994;28;20394;-59
2021/05/13 08:28:32;;;;;;;8.55;4.43;;;18.20;61.90;;;;;;10544964;28;20488;-58
2021/05/13 08:33:33;;;;;;;5.40;4.03;;;18.20;61.90;;;;;;10553743;28;20023;-58
2021/05/13 08:38:34;;;;;;;8.80;3.42;;;18.20;61.90;;;;;;10586518;28;20063;-58
2021/05/13 08:43:34;;;;;;;7.25;4.10;;;18.20;62.00;;;;;;10571480;28;20106;-58
2021/05/13 08:48:35;;;;;;;9.02;4.35;;;18.20;61.90;;;;;;10563336;28;20445;-59
2021/05/13 08:53:54;;;;;;;5.47;3.30;;;18.30;62.00;;;;;;10552905;28;20429;-58
2021/05/13 08:59:03;;;;;;;6.43;4.13;;;18.30;62.00;;;;;;10544421;28;20052;-58
2021/05/13 09:04:04;;;;;;;6.18;3.80;;;18.30;61.90;;;;;;10547859;28;20032;-58
2021/05/13 09:09:11;;;;;;;5.35;3.58;;;18.30;61.90;;;;;;10549484;28;20062;-58
2021/05/13 09:14:12;;;;;;;5.38;2.97;;;18.30;61.90;;;;;;10549255;28;20027;-57
2021/05/13 09:19:34;;;;;;;5.82;3.38;;;18.30;62.00;;;;;;10540979;28;20035;-58
2021/05/13 09:24:54;;;;;;;4.38;3.05;;;18.30;61.80;;;;;;10545304;28;20111;-58
2021/05/13 09:30:26;;;;;;;6.07;3.92;;;18.30;61.90;;;;;;10542539;28;20024;-58
2021/05/13 09:35:30;;;;;;;5.75;3.35;;;18.30;61.60;;;;;;10569756;28;20035;-58
2021/05/13 09:40:41;;;;;;;3.15;2.25;;;18.40;61.70;;;;;;10555212;28;20040;-58
2021/05/13 09:46:00;;;;;;;3.88;2.78;;;18.40;61.20;;;;;;10523582;28;20044;-58
2021/05/13 09:51:36;;;;;;;4.70;2.30;;;18.40;61.20;;;;;;10554281;28;20028;-59
2021/05/13 09:56:43;;;;;;;4.03;2.22;;;18.40;61.40;;;;;;10567587;28;20418;-59
2021/05/13 10:01:44;;;;;;;5.95;2.92;;;18.40;61.40;;;;;;10541249;28;20492;-59
2021/05/13 10:06:46;;;;;;;3.10;2.10;;;18.40;61.60;;;;;;10540840;28;20024;-59
2021/05/13 10:11:56;;;;;;;2.28;1.85;;;18.40;61.70;;;;;;10536591;28;20051;-59
2021/05/13 10:17:00;;;;;;;3.85;2.60;;;18.50;61.60;;;;;;10552635;28;20057;-58
2021/05/13 10:22:02;;;;;;;7.18;2.55;;;18.50;61.70;;;;;;10564589;28;20103;-58
2021/05/13 10:27:19;;;;;;;3.70;2.20;;;18.50;61.70;;;;;;10549576;28;20034;-58
2021/05/13 10:32:22;;;;;;;3.83;2.20;;;18.50;61.70;;;;;;10540095;28;20024;-59
2021/05/13 10:37:41;;;;;;;3.47;2.35;;;18.50;61.70;;;;;;10521135;28;20032;-58
2021/05/13 10:42:44;;;;;;;3.25;2.00;;;18.50;61.70;;;;;;10539646;28;20490;-62
2021/05/13 10:47:45;;;;;;;5.25;2.10;;;18.50;61.70;;;;;;10521409;28;20021;-62
2021/05/13 10:52:45;;;;;;;3.45;2.08;;;18.50;61.70;;;;;;10534943;28;20035;-58
2021/05/13 10:57:53;;;;;;;3.17;2.13;;;18.60;61.80;;;;;;10566382;28;20081;-58
2021/05/13 11:02:55;;;;;;;3.90;1.80;;;18.60;61.50;;;;;;10551464;28;20107;-58
2021/05/13 11:08:03;;;;;;;4.35;2.17;;;18.60;61.70;;;;;;10538869;28;20077;-58
2021/05/13 11:13:10;;;;;;;3.30;1.85;;;18.70;61.60;;;;;;10535562;28;20028;-58
2021/05/13 11:18:13;;;;;;;2.58;1.80;;;18.70;61.50;;;;;;10538788;28;20025;-58
2021/05/13 11:23:17;;;;;;;3.30;1.67;;;18.60;61.60;;;;;;10547415;28;20094;-58
2021/05/13 11:28:37;;;;;;;5.07;2.28;;;18.70;61.70;;;;;;10537730;28;20400;-59
2021/05/13 11:33:51;;;;;;;2.17;1.73;;;18.60;61.50;;;;;;10552408;28;20032;-58
2021/05/13 11:38:57;;;;;;;2.85;1.98;;;18.70;61.40;;;;;;10538221;28;20052;-59
2021/05/13 11:43:59;;;;;;;1.83;1.63;;;18.70;61.50;;;;;;10537681;28;20054;-58
2021/05/13 11:48:59;;;;;;;3.45;2.15;;;18.70;61.30;;;;;;10534497;28;20536;-58
2021/05/13 11:54:05;;;;;;;5.28;1.67;;;18.70;61.40;;;;;;10551943;28;20085;-58
2021/05/13 11:59:11;;;;;;;2.45;1.77;;;18.70;61.50;;;;;;10554150;28;20039;-58
2021/05/13 12:04:16;;;;;;;3.42;2.33;;;18.80;61.50;;;;;;10572894;28;20031;-58
2021/05/13 12:09:19;;;;;;;2.60;1.95;;;18.80;61.50;;;;;;10527913;28;20116;-58
2021/05/13 12:14:29;;;;;;;1.83;1.45;;;18.80;61.40;;;;;;10527330;28;20060;-58
2021/05/13 12:19:33;;;;;;;3.20;1.63;;;18.80;61.40;;;;;;10527787;28;20490;-61
2021/05/13 12:24:42;;;;;;;3.42;1.48;;;18.80;61.60;;;;;;10545461;28;20035;-61
2021/05/13 12:29:51;;;;;;;2.22;1.85;;;18.80;61.50;;;;;;10536711;28;20539;-62
2021/05/13 12:34:51;;;;;;;3.20;1.92;;;18.90;61.30;;;;;;10530181;28;20448;-62
2021/05/13 12:39:53;;;;;;;5.22;2.63;;;18.80;61.30;;;;;;10544277;28;20123;-61
2021/05/13 12:45:26;;;;;;;2.08;1.70;;;18.80;61.40;;;;;;10571858;28;20024;-62
2021/05/13 12:50:27;;;;;;;1.98;1.63;;;18.80;62.00;;;;;;10555547;28;20111;-62
2021/05/13 12:55:43;;;;;;;2.53;1.90;;;18.80;61.60;;;;;;10549578;28;20024;-62
2021/05/13 13:00:52;;;;;;;1.70;1.58;;;18.80;61.60;;;;;;10542112;28;20036;-62
2021/05/13 13:06:07;;;;;;;;;;;18.90;61.60;;;;;;10542973;28;20054;-62
2021/05/13 13:11:08;;;;;;;4.00;2.08;;;18.90;61.50;;;;;;10525096;28;19908;-61
2021/05/13 13:16:25;;;;;;;2.13;1.65;;;18.90;61.50;;;;;;10542602;28;20024;-62
2021/05/13 13:21:26;;;;;;;2.35;1.60;;;18.90;61.50;;;;;;10524289;28;20020;-58
2021/05/13 13:26:30;;;;;;;3.50;2.28;;;19.00;61.40;;;;;;10542033;28;20110;-59
2021/05/13 13:31:36;;;;;;;2.97;1.88;;;19.00;61.40;;;;;;10541734;28;20032;-58
2021/05/13 13:36:37;;;;;;;2.80;1.98;;;19.00;61.50;;;;;;10542566;28;20111;-58
2021/05/13 13:41:38;;;;;;;2.67;2.30;;;19.00;61.20;;;;;;10524876;28;20388;-59
2021/05/13 13:46:40;;;;;;;3.58;2.33;;;19.10;61.20;;;;;;10565308;28;20027;-59
2021/05/13 13:51:40;;;;;;;2.97;2.03;;;19.10;61.70;;;;;;10532315;28;20020;-59
2021/05/13 13:56:41;;;;;;;3.28;2.08;;;19.10;60.90;;;;;;10544433;28;20106;-59
2021/05/13 14:01:42;;;;;;;4.15;1.95;;;19.10;61.00;;;;;;10548195;28;20109;-59
2021/05/13 14:06:42;;;;;;;2.38;2.10;;;19.10;61.00;;;;;;10540306;28;20110;-58
2021/05/13 14:11:43;;;;;;;2.40;1.98;;;19.00;60.80;;;;;;10539862;28;20420;-59
2021/05/13 14:16:45;;;;;;;5.15;1.90;;;19.00;60.90;;;;;;10527172;28;20106;-58
2021/05/13 14:21:46;;;;;;;4.78;2.60;;;19.00;61.00;;;;;;10539842;28;20364;-59
2021/05/13 14:26:46;;;;;;;3.72;2.53;;;19.00;61.00;;;;;;10539583;28;20108;-58
2021/05/13 14:31:47;;;;;;;3.90;2.40;;;19.00;61.10;;;;;;10568118;28;20102;-59
2021/05/13 14:36:48;;;;;;;2.88;1.88;;;19.00;61.20;;;;;;10581506;28;20446;-58
2021/05/13 14:41:48;;;;;;;2.08;1.80;;;19.00;61.30;;;;;;10545924;28;20384;-58
2021/05/13 14:46:49;;;;;;;2.05;1.80;;;19.00;61.30;;;;;;10538908;28;20070;-58
2021/05/13 14:51:51;;;;;;;2.95;1.80;;;19.10;61.30;;;;;;10558157;28;20111;-59
2021/05/13 14:57:00;;;;;;;2.83;1.85;;;19.10;61.30;;;;;;10571729;28;20024;-59
2021/05/13 15:02:05;;;;;;;2.92;2.45;;;19.10;61.30;;;;;;10580981;28;20038;-59
2021/05/13 15:07:06;;;;;;;2.35;2.15;;;19.10;61.30;;;;;;10580550;28;20375;-58
2021/05/13 15:12:07;;;;;;;2.80;1.80;;;19.10;61.10;;;;;;10580458;28;20119;-58
2021/05/13 15:17:08;;;;;;;1.88;1.65;;;19.10;61.20;;;;;;10555027;28;20032;-58
2021/05/13 15:22:08;;;;;;;2.60;2.35;;;19.10;61.20;;;;;;10536902;28;20115;-58
2021/05/13 15:27:09;;;;;;;2.20;1.83;;;19.10;61.20;;;;;;10551623;28;20028;-58
2021/05/13 15:32:10;;;;;;;2.40;2.08;;;19.10;61.00;;;;;;10515944;28;20483;-59
2021/05/13 15:37:11;;;;;;;2.97;2.25;;;19.10;61.00;;;;;;10519734;28;20429;-58
2021/05/13 15:42:11;;;;;;;2.65;2.03;;;19.10;61.00;;;;;;10551095;28;20122;-58
2021/05/13 15:47:13;;;;;;;3.88;2.05;;;19.10;61.00;;;;;;10546815;28;20046;-59
2021/05/13 15:52:13;;;;;;;2.63;2.00;;;19.10;61.00;;;;;;10550819;28;20024;-58
2021/05/13 15:57:14;;;;;;;3.03;2.30;;;19.10;61.00;;;;;;10579461;28;20106;-58
2021/05/13 16:02:15;;;;;;;2.53;1.88;;;19.00;61.00;;;;;;10561063;28;20081;-59
2021/05/13 16:07:17;;;;;;;5.35;1.83;;;19.00;61.00;;;;;;10578996;28;20103;-58
2021/05/13 16:12:18;;;;;;;3.38;2.03;;;19.00;61.00;;;;;;10579329;28;20510;-58
2021/05/13 16:17:19;;;;;;;2.80;2.20;;;19.00;61.00;;;;;;10579153;28;20039;-58
2021/05/13 16:22:20;;;;;;;2.83;1.98;;;19.00;61.00;;;;;;10569125;28;20024;-58
2021/05/13 16:27:21;;;;;;;2.17;1.85;;;19.00;61.00;;;;;;10536801;28;20032;-57
2021/05/13 16:32:21;;;;;;;2.30;1.80;;;19.00;61.00;;;;;;10538809;28;20127;-58
2021/05/13 16:37:22;;;;;;;2.85;2.25;;;19.00;61.10;;;;;;10544364;28;20047;-58
2021/05/13 16:42:23;;;;;;;2.60;2.17;;;19.00;61.00;;;;;;10542240;28;20035;-59
2021/05/13 16:47:24;;;;;;;2.45;1.98;;;19.00;61.70;;;;;;10538466;28;20028;-58
2021/05/13 16:52:25;;;;;;;2.92;2.25;;;19.00;61.10;;;;;;10568328;28;20384;-58
2021/05/13 16:57:26;;;;;;;2.25;1.90;;;19.00;61.10;;;;;;10544022;28;20077;-58
2021/05/13 17:02:31;;;;;;;2.35;2.08;;;18.90;61.10;;;;;;10523046;28;20085;-58
2021/05/13 17:07:33;;;;;;;2.60;1.95;;;19.00;61.20;;;;;;10508996;28;20368;-58
2021/05/13 17:12:34;;;;;;;3.13;2.42;;;18.90;61.10;;;;;;10543328;28;20020;-58
2021/05/13 17:17:38;;;;;;;3.25;2.70;;;18.90;61.00;;;;;;10543158;28;20094;-58
2021/05/13 17:22:40;;;;;;;3.92;2.60;;;18.90;60.80;;;;;;10556649;28;20067;-59
2021/05/13 17:27:41;;;;;;;3.05;2.22;;;18.90;60.80;;;;;;10524844;28;20115;-59
2021/05/13 17:32:42;;;;;;;3.38;2.38;;;18.90;60.90;;;;;;10542541;28;20425;-59
2021/05/13 17:37:43;;;;;;;2.78;2.13;;;18.90;61.00;;;;;;10524170;28;20044;-58
2021/05/13 17:42:46;;;;;;;3.78;2.20;;;18.90;61.00;;;;;;10555754;28;20024;-59
2021/05/13 17:47:46;;;;;;;3.28;2.50;;;18.90;61.10;;;;;;10541289;28;20384;-58
2021/05/13 17:52:47;;;;;;;2.17;1.83;;;18.90;61.20;;;;;;10549203;28;20024;-58
2021/05/13 17:57:49;;;;;;;2.83;1.95;;;18.90;61.30;;;;;;10570119;28;20048;-58
2021/05/13 18:02:51;;;;;;;4.95;2.78;;;18.90;61.30;;;;;;10528529;28;20028;-58
2021/05/13 18:07:52;;;;;;;3.13;2.40;;;18.90;61.30;;;;;;10540812;28;20048;-58
2021/05/13 18:12:54;;;;;;;5.25;2.65;;;18.90;61.30;;;;;;10523020;28;20483;-58
2021/05/13 18:17:55;;;;;;;2.85;2.13;;;18.90;61.40;;;;;;10522890;28;20077;-59
2021/05/13 18:22:59;;;;;;;3.13;2.15;;;18.90;61.40;;;;;;10540332;28;20028;-58
2021/05/13 18:28:00;;;;;;;4.20;3.17;;;18.90;61.50;;;;;;10554070;28;20051;-59
2021/05/13 18:33:02;;;;;;;5.05;2.70;;;18.90;61.50;;;;;;10540250;28;20047;-59
2021/05/13 18:38:03;;;;;;;2.85;2.47;;;18.90;61.60;;;;;;10504981;28;20075;-59
2021/05/13 18:43:05;;;;;;;2.83;2.42;;;18.90;61.60;;;;;;10553542;28;20059;-58
2021/05/13 18:48:07;;;;;;;2.72;2.33;;;18.80;61.60;;;;;;10545069;28;20035;-59
2021/05/13 18:53:09;;;;;;;3.35;2.58;;;18.80;61.70;;;;;;10549671;28;20028;-59
2021/05/13 18:58:11;;;;;;;4.15;2.72;;;18.80;61.70;;;;;;10555908;28;20507;-58
2021/05/13 19:03:12;;;;;;;5.53;2.65;;;18.80;61.70;;;;;;10539176;28;20068;-58
2021/05/13 19:08:13;;;;;;;4.82;2.70;;;18.80;61.80;;;;;;10538870;28;20115;-58
2021/05/13 19:13:13;;;;;;;4.00;2.20;;;18.80;61.80;;;;;;10538929;28;20035;-59
2021/05/13 19:18:17;;;;;;;4.28;2.30;;;18.80;61.80;;;;;;10538743;28;20024;-58
2021/05/13 19:23:19;;;;;;;2.53;2.17;;;18.80;61.90;;;;;;10538940;28;20518;-58
2021/05/13 19:28:22;;;;;;;2.90;2.60;;;18.80;61.90;;;;;;10538587;28;20111;-58
2021/05/13 19:38:42;;;;;;;2.85;2.38;;;18.80;62.00;;;;;;10523433;28;20056;-58
2021/05/13 19:43:43;;;;;;;3.13;2.50;;;18.80;62.00;;;;;;10533392;28;20028;-59
2021/05/13 19:48:44;;;;;;;5.70;2.97;;;18.80;62.00;;;;;;10568210;28;20034;-58
2021/05/13 19:53:46;;;;;;;4.38;2.72;;;18.80;62.00;;;;;;10567222;28;20471;-59
2021/05/13 19:58:47;;;;;;;3.65;2.80;;;18.80;62.10;;;;;;10563846;28;20032;-58
2021/05/13 20:04:15;;;;;;;4.28;2.78;;;18.80;62.10;;;;;;10522678;28;20020;-59
2021/05/13 20:09:29;;;;;;;3.00;2.47;;;18.80;62.10;;;;;;10562690;28;20020;-58
2021/05/13 20:14:30;;;;;;;4.05;2.40;;;18.80;62.10;;;;;;10529366;28;20149;-57
2021/05/13 20:19:31;;;;;;;2.97;2.40;;;18.80;62.10;;;;;;10545666;28;20453;-58
2021/05/13 20:24:39;;;;;;;2.97;2.38;;;18.80;62.10;;;;;;10526491;28;20531;-59
2021/05/13 20:29:39;;;;;;;3.30;3.00;;;18.70;62.10;;;;;;10547726;28;20048;-59
2021/05/13 20:34:40;;;;;;;3.30;2.45;;;18.70;62.00;;;;;;10568657;28;20027;-59
2021/05/13 20:39:41;;;;;;;3.55;2.40;;;18.80;62.10;;;;;;10544243;28;20130;-59
2021/05/13 20:44:42;;;;;;;3.58;2.60;;;18.70;62.10;;;;;;10558428;28;20024;-59
2021/05/13 20:49:51;;;;;;;5.30;2.80;;;18.70;62.10;;;;;;10576833;28;20566;-59
2021/05/13 21:00:12;;;;;;;5.70;2.83;;;18.70;62.10;;;;;;10558816;28;20039;-59
2021/05/13 21:05:17;;;;;;;4.10;2.55;;;18.70;62.10;;;;;;10564913;28;20032;-58
2021/05/13 21:10:42;;;;;;;3.80;2.80;;;18.70;62.10;;;;;;10543066;28;20025;-59
2021/05/13 21:20:27;;;;;;;2.78;2.42;;;18.70;62.10;;;;;;10579343;28;20031;-58
2021/05/13 21:21:12;;;;;;;4.47;3.30;;;18.70;62.10;;;;;;10557967;28;20035;-58
2021/05/13 21:31:34;;;;;;;4.10;2.80;;;18.70;62.20;;;;;;10569704;28;20032;-59
2021/05/13 21:36:35;;;;;;;3.67;2.78;;;18.70;62.20;;;;;;10537748;28;20237;-58
2021/05/13 21:41:36;;;;;;;4.18;2.80;;;18.70;62.20;;;;;;10550411;28;20049;-58
2021/05/13 21:46:39;;;;;;;4.05;2.75;;;18.70;62.20;;;;;;10560128;28;20028;-58
2021/05/13 21:51:40;;;;;;;3.85;2.60;;;18.70;62.20;;;;;;10566406;28;20024;-59
2021/05/13 21:56:40;;;;;;;4.32;3.10;;;18.70;62.20;;;;;;10568829;28;20572;-59
2021/05/13 22:01:41;;;;;;;3.50;2.97;;;18.70;62.20;;;;;;10542035;28;20031;-58
2021/05/13 22:06:42;;;;;;;3.20;2.33;;;18.70;62.30;;;;;;10569357;28;20261;-59
2021/05/13 22:11:42;;;;;;;2.70;2.50;;;18.70;62.30;;;;;;10582760;28;20413;-58
2021/05/13 22:16:43;;;;;;;3.15;2.80;;;18.60;62.20;;;;;;10564226;28;20501;-58
2021/05/13 22:21:50;;;;;;;3.63;2.70;;;18.60;62.20;;;;;;10582354;28;20076;-58
2021/05/13 22:27:02;;;;;;;4.72;2.70;;;18.60;62.30;;;;;;10582047;28;20020;-59
2021/05/13 22:32:03;;;;;;;2.95;2.35;;;18.60;62.20;;;;;;10558489;28;20107;-59
2021/05/13 22:37:04;;;;;;;3.45;3.03;;;18.60;62.20;;;;;;10539976;28;20027;-59
2021/05/13 22:42:06;;;;;;;3.72;3.33;;;18.60;62.30;;;;;;10533865;28;20483;-59
2021/05/13 22:47:07;;;;;;;3.78;2.53;;;18.60;62.30;;;;;;10549662;28;20034;-59
2021/05/13 22:57:09;;;;;;;4.18;3.05;;;18.60;62.30;;;;;;10538904;28;20139;-59
2021/05/13 23:02:10;;;;;;;3.10;2.80;;;18.60;62.30;;;;;;10538682;28;20103;-58
2021/05/13 23:07:11;;;;;;;3.40;2.88;;;18.60;62.30;;;;;;10539111;28;20122;-58
2021/05/13 23:12:12;;;;;;;2.88;2.47;;;18.60;62.40;;;;;;10538626;28;20027;-58
2021/05/13 23:17:13;;;;;;;3.65;2.63;;;18.60;62.40;;;;;;10545920;28;20026;-58
2021/05/13 23:22:13;;;;;;;4.60;2.80;;;18.60;62.30;;;;;;10558390;28;20114;-58
2021/05/13 23:27:14;;;;;;;3.90;3.00;;;18.60;62.40;;;;;;10538067;28;20111;-58
2021/05/13 23:32:15;;;;;;;3.58;3.05;;;18.60;62.40;;;;;;10538039;28;20032;-58
2021/05/13 23:37:16;;;;;;;3.97;2.95;;;18.60;62.50;;;;;;10538039;28;20387;-59
2021/05/13 23:42:17;;;;;;;3.47;3.03;;;18.60;62.40;;;;;;10552927;28;20508;-59
2021/05/13 23:47:17;;;;;;;4.25;3.00;;;18.50;62.40;;;;;;10560680;28;20035;-58
2021/05/13 23:52:18;;;;;;;3.42;2.92;;;18.50;62.40;;;;;;10527083;28;20020;-58
2021/05/13 23:57:19;;;;;;;5.97;3.47;;;18.50;62.40;;;;;;10545930;28;20028;-58
